createdAt,value
2017-08-03T00:01:27.634Z,85.60
2017-08-03T00:03:56.003Z,84.70
2017-08-03T00:06:24.426Z,84.30
2017-08-03T00:08:52.026Z,84.20
2017-08-03T00:11:20.438Z,84.60
2017-08-03T00:13:48.030Z,84.60
2017-08-03T00:16:16.447Z,83.80
2017-08-03T00:18:44.025Z,83.70
2017-08-03T00:21:11.560Z,83.60
2017-08-03T00:23:39.122Z,84.40
2017-08-03T00:26:07.421Z,84.70
2017-08-03T00:28:35.044Z,84.70
2017-08-03T00:31:03.335Z,84.30
2017-08-03T00:33:30.923Z,84.30
2017-08-03T00:35:58.459Z,83.60
2017-08-03T00:38:26.049Z,84.50
2017-08-03T00:40:53.630Z,85.60
2017-08-03T00:43:21.237Z,85.60
2017-08-03T00:45:49.580Z,85.20
2017-08-03T00:48:17.203Z,85.10
2017-08-03T00:50:44.764Z,84.80
2017-08-03T00:53:12.390Z,84.60
2017-08-03T00:55:40.007Z,84.60
2017-08-03T00:58:07.636Z,84.80
2017-08-03T01:00:35.222Z,84.60
2017-08-03T01:03:02.838Z,85.20
2017-08-03T01:05:30.396Z,85.80
2017-08-03T01:07:58.096Z,84.90
2017-08-03T01:10:26.509Z,85.90
2017-08-03T01:12:55.269Z,85.90
2017-08-03T01:15:22.928Z,87.00
2017-08-03T01:17:50.533Z,87.40
2017-08-03T01:20:18.970Z,88.60
2017-08-03T01:22:46.564Z,87.70
2017-08-03T01:25:14.184Z,87.00
2017-08-03T01:27:41.757Z,86.70
2017-08-03T01:30:09.320Z,86.70
2017-08-03T01:32:36.982Z,87.00
2017-08-03T01:35:04.511Z,85.50
2017-08-03T01:37:32.147Z,85.80
2017-08-03T01:39:59.741Z,85.80
2017-08-03T01:42:27.353Z,85.90
2017-08-03T01:44:54.930Z,85.70
2017-08-03T01:47:22.597Z,85.80
2017-08-03T01:49:50.213Z,86.40
2017-08-03T01:52:18.109Z,86.30
2017-08-03T01:54:45.705Z,86.40
2017-08-03T01:57:13.236Z,85.80
2017-08-03T01:59:40.898Z,86.50
2017-08-03T02:02:08.500Z,86.60
2017-08-03T02:04:36.931Z,85.80
2017-08-03T02:07:04.615Z,85.80
2017-08-03T02:09:33.046Z,86.70
2017-08-03T02:12:00.586Z,86.50
2017-08-03T02:14:28.273Z,87.10
2017-08-03T02:16:56.660Z,86.20
2017-08-03T02:19:24.215Z,86.10
2017-08-03T02:21:51.897Z,86.00
2017-08-03T02:24:19.507Z,86.60
2017-08-03T02:26:47.164Z,87.30
2017-08-03T02:29:14.781Z,86.20
2017-08-03T02:31:42.440Z,86.00
2017-08-03T02:34:10.060Z,86.60
2017-08-03T02:36:38.495Z,88.00
2017-08-03T02:39:06.121Z,88.00
2017-08-03T02:41:33.739Z,88.20
2017-08-03T02:44:01.311Z,88.50
2017-08-03T02:46:28.858Z,90.00
2017-08-03T02:48:56.451Z,91.00
2017-08-03T02:51:24.798Z,91.00
2017-08-03T02:53:53.255Z,90.90
2017-08-03T02:56:20.823Z,90.90
2017-08-03T02:58:49.260Z,91.30
2017-08-03T03:01:16.795Z,91.20
2017-08-03T03:03:44.450Z,91.20
2017-08-03T03:06:12.765Z,91.10
2017-08-03T03:08:40.358Z,91.40
2017-08-03T03:11:08.721Z,91.60
2017-08-03T03:13:36.392Z,91.50
2017-08-03T03:16:03.923Z,91.40
2017-08-03T03:18:31.597Z,91.40
2017-08-03T03:21:00.000Z,91.30
2017-08-03T03:23:27.682Z,91.30
2017-08-03T03:25:55.325Z,90.90
2017-08-03T03:28:22.975Z,91.00
2017-08-03T03:30:50.633Z,91.10
2017-08-03T03:33:18.736Z,91.30
2017-08-03T03:35:46.409Z,91.20
2017-08-03T03:38:14.078Z,90.70
2017-08-03T03:40:42.385Z,90.60
2017-08-03T03:43:09.923Z,90.70
2017-08-03T03:45:37.569Z,90.70
2017-08-03T03:48:05.967Z,90.80
2017-08-03T03:50:33.860Z,90.80
2017-08-03T03:53:01.996Z,90.90
2017-08-03T03:55:30.744Z,91.00
2017-08-03T03:57:58.362Z,90.80
2017-08-03T04:00:26.730Z,90.10
2017-08-03T04:02:55.067Z,90.70
2017-08-03T04:05:22.640Z,90.60
2017-08-03T04:07:50.225Z,90.80
2017-08-03T04:10:17.900Z,90.80
2017-08-03T04:12:45.438Z,90.90
2017-08-03T04:15:12.971Z,91.00
2017-08-03T04:17:40.535Z,90.80
2017-08-03T04:20:08.095Z,90.90
2017-08-03T04:22:36.525Z,91.40
2017-08-03T04:25:04.075Z,91.00
2017-08-03T04:27:31.659Z,90.90
2017-08-03T04:30:00.240Z,90.80
2017-08-03T04:32:28.653Z,90.90
2017-08-03T04:34:56.345Z,90.80
2017-08-03T04:37:24.667Z,91.00
2017-08-03T04:39:52.306Z,91.00
2017-08-03T04:42:19.841Z,91.10
2017-08-03T04:44:47.414Z,91.00
2017-08-03T04:47:15.025Z,90.80
2017-08-03T04:49:42.597Z,90.40
2017-08-03T04:52:10.128Z,90.90
2017-08-03T04:54:37.778Z,90.70
2017-08-03T04:57:05.303Z,90.50
2017-08-03T04:59:32.859Z,90.40
2017-08-03T05:02:00.396Z,90.40
2017-08-03T05:04:28.026Z,90.30
2017-08-03T05:06:55.608Z,90.00
2017-08-03T05:09:23.179Z,89.00
2017-08-03T05:11:50.740Z,89.00
2017-08-03T05:14:19.032Z,87.70
2017-08-03T05:16:46.591Z,87.50
2017-08-03T05:19:14.199Z,87.40
2017-08-03T05:21:42.526Z,85.80
2017-08-03T05:24:10.059Z,85.80
2017-08-03T05:26:37.686Z,85.30
2017-08-03T05:29:05.310Z,85.60
2017-08-03T05:31:32.880Z,84.50
2017-08-03T05:34:00.432Z,84.70
2017-08-03T05:36:28.083Z,82.70
2017-08-03T05:38:55.751Z,82.70
2017-08-03T05:41:23.384Z,84.10
2017-08-03T05:43:51.018Z,84.60
2017-08-03T05:46:18.621Z,84.50
2017-08-03T05:48:47.001Z,81.50
2017-08-03T05:51:14.670Z,81.40
2017-08-03T05:53:42.249Z,81.00
2017-08-03T05:56:09.782Z,81.60
2017-08-03T05:58:37.426Z,79.90
2017-08-03T06:01:05.235Z,79.00
2017-08-03T06:03:32.885Z,78.90
2017-08-03T06:06:00.524Z,76.80
2017-08-03T06:08:28.188Z,75.90
2017-08-03T06:10:56.032Z,79.00
2017-08-03T06:13:23.598Z,79.70
2017-08-03T06:15:51.225Z,80.40
2017-08-03T06:18:18.888Z,80.00
2017-08-03T06:20:46.510Z,81.10
2017-08-03T06:23:14.093Z,81.10
2017-08-03T06:25:41.736Z,81.40
2017-08-03T06:28:09.403Z,81.50
2017-08-03T06:30:37.064Z,81.40
2017-08-03T06:33:04.712Z,82.30
2017-08-03T06:35:32.357Z,82.70
2017-08-03T06:37:59.980Z,82.80
2017-08-03T06:40:27.645Z,82.70
2017-08-03T06:42:55.759Z,82.80
2017-08-03T06:45:23.364Z,83.10
2017-08-03T06:47:50.974Z,83.50
2017-08-03T06:50:18.637Z,82.90
2017-08-03T06:52:46.203Z,82.40
2017-08-03T06:55:13.856Z,81.60
2017-08-03T06:57:41.480Z,81.20
2017-08-03T07:00:09.140Z,80.40
2017-08-03T07:02:36.744Z,80.90
2017-08-03T07:05:04.336Z,78.80
2017-08-03T07:07:31.899Z,81.10
2017-08-03T07:09:59.638Z,81.10
2017-08-03T07:12:27.975Z,79.80
2017-08-03T07:14:55.595Z,79.70
2017-08-03T07:17:23.250Z,79.80
2017-08-03T07:19:50.883Z,79.30
2017-08-03T07:22:18.529Z,78.20
2017-08-03T07:24:46.071Z,78.10
2017-08-03T07:27:13.728Z,76.30
2017-08-03T07:29:41.267Z,74.10
2017-08-03T07:32:08.831Z,73.50
2017-08-03T07:34:36.375Z,67.50
2017-08-03T07:37:03.951Z,68.60
2017-08-03T07:39:31.524Z,70.60
2017-08-03T07:41:59.099Z,71.70
2017-08-03T07:44:26.687Z,65.40
2017-08-03T07:46:54.392Z,63.60
2017-08-03T07:49:22.062Z,65.10
2017-08-03T07:51:49.681Z,64.10
2017-08-03T07:54:17.398Z,63.20
2017-08-03T07:56:46.023Z,59.00
2017-08-03T07:59:15.157Z,59.00
2017-08-03T08:01:43.460Z,58.20
2017-08-03T08:04:11.121Z,58.10
2017-08-03T08:06:38.721Z,58.60
2017-08-03T08:09:06.272Z,58.20
2017-08-03T08:11:33.896Z,57.90
2017-08-03T08:14:02.221Z,60.60
2017-08-03T08:16:29.812Z,60.50
2017-08-03T08:18:58.121Z,61.50
2017-08-03T08:21:25.800Z,61.50
2017-08-03T08:23:53.433Z,58.80
2017-08-03T08:26:21.082Z,58.10
2017-08-03T08:28:48.612Z,58.30
2017-08-03T08:31:16.238Z,63.20
2017-08-03T08:33:43.868Z,66.10
2017-08-03T08:36:11.508Z,67.00
2017-08-03T08:38:39.117Z,67.40
2017-08-03T08:41:06.700Z,65.50
2017-08-03T08:43:34.324Z,65.20
2017-08-03T08:46:02.720Z,62.30
2017-08-03T08:48:30.356Z,61.50
2017-08-03T08:50:58.005Z,58.20
2017-08-03T08:53:25.596Z,58.00
2017-08-03T08:55:53.230Z,62.00
2017-08-03T08:58:20.839Z,56.70
2017-08-03T09:00:49.252Z,56.30
2017-08-03T09:03:16.835Z,56.30
2017-08-03T09:05:44.462Z,56.60
2017-08-03T09:08:12.068Z,56.30
2017-08-03T09:10:39.697Z,58.40
2017-08-03T09:13:07.275Z,56.50
2017-08-03T09:15:34.909Z,55.10
2017-08-03T09:18:02.556Z,54.70
2017-08-03T09:20:30.157Z,55.10
2017-08-03T09:22:57.785Z,54.60
2017-08-03T09:25:25.348Z,54.00
2017-08-03T09:27:53.932Z,54.60
2017-08-03T09:30:21.553Z,54.60
2017-08-03T09:32:49.119Z,55.00
2017-08-03T09:35:16.706Z,56.10
2017-08-03T09:37:44.268Z,58.40
2017-08-03T09:40:11.856Z,60.20
2017-08-03T09:42:40.240Z,56.20
2017-08-03T09:45:07.874Z,56.00
2017-08-03T09:47:36.253Z,54.60
2017-08-03T09:50:03.837Z,54.50
2017-08-03T09:52:31.391Z,54.50
2017-08-03T09:54:58.981Z,53.60
2017-08-03T09:57:26.683Z,53.90
2017-08-03T09:59:54.368Z,53.80
2017-08-03T10:02:22.692Z,51.50
2017-08-03T10:04:50.314Z,51.40
2017-08-03T10:07:17.947Z,52.10
2017-08-03T10:09:46.152Z,51.80
2017-08-03T10:12:13.806Z,53.10
2017-08-03T10:14:41.416Z,51.60
2017-08-03T10:17:09.039Z,51.50
2017-08-03T10:19:36.592Z,52.10
2017-08-03T10:22:04.172Z,52.20
2017-08-03T10:24:31.736Z,50.40
2017-08-03T10:26:59.335Z,51.50
2017-08-03T10:29:26.957Z,52.10
2017-08-03T10:31:54.594Z,50.20
2017-08-03T10:34:22.903Z,50.60
2017-08-03T10:36:50.508Z,50.50
2017-08-03T10:39:18.127Z,49.30
2017-08-03T10:41:45.735Z,49.10
2017-08-03T10:44:13.367Z,50.00
2017-08-03T10:46:40.921Z,51.30
2017-08-03T10:49:08.569Z,50.10
2017-08-03T10:51:36.182Z,50.10
2017-08-03T10:54:03.783Z,50.20
2017-08-03T10:56:31.339Z,50.90
2017-08-03T10:58:58.900Z,50.30
2017-08-03T11:01:26.475Z,50.20
2017-08-03T11:03:54.845Z,50.70
2017-08-03T11:06:22.449Z,50.70
2017-08-03T11:08:50.071Z,51.20
2017-08-03T11:11:17.799Z,51.00
2017-08-03T11:13:45.385Z,50.10
2017-08-03T11:16:13.005Z,49.90
2017-08-03T11:18:40.585Z,50.00
2017-08-03T11:21:08.152Z,49.30
2017-08-03T11:23:36.456Z,51.50
2017-08-03T11:26:04.015Z,51.50
2017-08-03T11:28:31.604Z,50.10
2017-08-03T11:31:00.027Z,49.10
2017-08-03T11:33:27.601Z,49.00
2017-08-03T11:35:55.165Z,49.40
2017-08-03T11:38:23.555Z,50.10
2017-08-03T11:40:51.180Z,50.10
2017-08-03T11:43:18.820Z,49.60
2017-08-03T11:45:47.132Z,50.80
2017-08-03T11:48:14.703Z,50.70
2017-08-03T11:50:42.313Z,50.60
2017-08-03T11:53:09.930Z,49.80
2017-08-03T11:55:38.313Z,50.00
2017-08-03T11:58:05.959Z,50.00
2017-08-03T12:00:33.690Z,49.10
2017-08-03T12:03:02.172Z,49.90
2017-08-03T12:05:29.847Z,49.90
2017-08-03T12:07:57.486Z,49.60
2017-08-03T12:10:25.138Z,50.40
2017-08-03T12:12:52.706Z,48.30
2017-08-03T12:15:20.345Z,48.90
2017-08-03T12:17:47.960Z,49.90
2017-08-03T12:20:15.576Z,47.30
2017-08-03T12:22:43.876Z,47.20
2017-08-03T12:25:11.530Z,47.20
2017-08-03T12:27:39.115Z,47.70
2017-08-03T12:30:06.794Z,47.00
2017-08-03T12:32:34.393Z,48.30
2017-08-03T12:35:02.097Z,47.70
2017-08-03T12:37:29.773Z,46.90
2017-08-03T12:39:57.372Z,47.50
2017-08-03T12:42:25.790Z,48.30
2017-08-03T12:44:53.386Z,48.30
2017-08-03T12:47:20.963Z,48.10
2017-08-03T12:49:48.565Z,47.50
2017-08-03T12:52:16.186Z,48.50
2017-08-03T12:54:43.808Z,50.70
2017-08-03T12:57:11.457Z,49.80
2017-08-03T12:59:39.095Z,51.60
2017-08-03T13:02:06.716Z,52.90
2017-08-03T13:04:35.151Z,51.30
2017-08-03T13:07:02.760Z,51.20
2017-08-03T13:09:30.433Z,50.50
2017-08-03T13:11:58.072Z,49.80
2017-08-03T13:14:25.731Z,50.00
2017-08-03T13:16:53.289Z,48.60
2017-08-03T13:19:20.958Z,49.00
2017-08-03T13:21:49.328Z,49.90
2017-08-03T13:24:17.703Z,49.10
2017-08-03T13:26:45.338Z,49.00
2017-08-03T13:29:12.932Z,50.20
2017-08-03T13:31:40.512Z,49.00
2017-08-03T13:34:08.880Z,50.90
2017-08-03T13:36:37.276Z,49.40
2017-08-03T13:39:04.888Z,49.00
2017-08-03T13:41:33.320Z,48.80
2017-08-03T13:44:00.937Z,48.80
2017-08-03T13:46:28.567Z,49.30
2017-08-03T13:48:56.225Z,51.00
2017-08-03T13:51:23.890Z,52.30
2017-08-03T13:53:51.567Z,49.90
2017-08-03T13:56:19.180Z,50.60
2017-08-03T13:58:46.726Z,52.40
2017-08-03T14:01:14.373Z,49.70
2017-08-03T14:03:41.985Z,47.70
2017-08-03T14:06:10.386Z,46.80
2017-08-03T14:08:37.978Z,46.70
2017-08-03T14:11:05.632Z,48.10
2017-08-03T14:13:34.004Z,46.00
2017-08-03T14:16:02.433Z,48.40
2017-08-03T14:18:30.057Z,48.40
2017-08-03T14:20:57.693Z,46.60
2017-08-03T14:23:25.320Z,48.80
2017-08-03T14:25:52.962Z,49.60
2017-08-03T14:28:21.319Z,47.20
2017-08-03T14:30:49.754Z,47.50
2017-08-03T14:33:17.372Z,46.90
2017-08-03T14:35:45.037Z,48.60
2017-08-03T14:38:12.657Z,50.60
2017-08-03T14:40:40.296Z,47.40
2017-08-03T14:43:07.835Z,51.60
2017-08-03T14:45:35.374Z,51.70
2017-08-03T14:48:02.964Z,47.90
2017-08-03T14:50:30.519Z,50.30
2017-08-03T14:52:58.099Z,47.90
2017-08-03T14:55:25.652Z,46.30
2017-08-03T14:57:53.260Z,46.10
2017-08-03T15:00:20.824Z,47.90
2017-08-03T15:02:48.406Z,49.30
2017-08-03T15:05:16.036Z,48.40
2017-08-03T15:07:43.670Z,44.90
2017-08-03T15:10:12.111Z,45.60
2017-08-03T15:12:39.753Z,45.50
2017-08-03T15:15:07.345Z,46.20
2017-08-03T15:17:34.985Z,48.40
2017-08-03T15:20:03.386Z,49.70
2017-08-03T15:22:31.703Z,49.70
2017-08-03T15:25:00.063Z,53.80
2017-08-03T15:27:28.844Z,54.00
2017-08-03T15:29:57.241Z,55.10
2017-08-03T15:32:24.978Z,55.00
2017-08-03T15:34:52.520Z,54.60
2017-08-03T15:37:20.098Z,54.30
2017-08-03T15:39:47.669Z,54.30
2017-08-03T15:42:15.333Z,56.40
2017-08-03T15:44:42.927Z,55.60
2017-08-03T15:47:10.544Z,56.00
2017-08-03T15:49:38.210Z,55.30
2017-08-03T15:52:05.801Z,56.30
2017-08-03T15:54:33.462Z,55.60
2017-08-03T15:57:00.997Z,52.90
2017-08-03T15:59:28.636Z,53.50
2017-08-03T16:01:56.251Z,54.70
2017-08-03T16:04:24.850Z,55.90
2017-08-03T16:06:52.557Z,57.10
2017-08-03T16:09:20.238Z,56.90
2017-08-03T16:11:47.845Z,56.70
2017-08-03T16:14:15.521Z,55.90
2017-08-03T16:16:43.102Z,56.50
2017-08-03T16:19:10.751Z,58.50
2017-08-03T16:21:38.350Z,58.70
2017-08-03T16:24:05.940Z,58.90
2017-08-03T16:26:33.772Z,59.90
2017-08-03T16:29:01.426Z,59.20
2017-08-03T16:31:29.019Z,56.60
2017-08-03T16:33:56.616Z,56.90
2017-08-03T16:36:25.619Z,59.40
2017-08-03T16:38:53.470Z,60.00
2017-08-03T16:41:21.044Z,61.20
2017-08-03T16:43:48.692Z,59.00
2017-08-03T16:46:16.313Z,61.40
2017-08-03T16:48:44.729Z,62.70
2017-08-03T16:51:12.322Z,62.20
2017-08-03T16:53:39.895Z,62.50
2017-08-03T16:56:07.520Z,63.70
2017-08-03T17:01:09.928Z,63.40
2017-08-03T17:03:37.519Z,64.60
2017-08-03T17:06:05.162Z,65.30
2017-08-03T17:08:32.768Z,63.50
2017-08-03T17:11:00.539Z,65.30
2017-08-03T17:13:28.143Z,66.60
2017-08-03T17:15:55.791Z,66.30
2017-08-03T17:18:23.428Z,66.40
2017-08-03T17:20:51.120Z,67.20
2017-08-03T17:23:18.693Z,67.80
2017-08-03T17:25:47.047Z,69.10
2017-08-03T17:28:14.668Z,68.20
2017-08-03T17:30:42.286Z,67.60
2017-08-03T17:33:09.910Z,68.50
2017-08-03T17:35:37.472Z,68.70
2017-08-03T17:38:05.100Z,68.80
2017-08-03T17:40:33.465Z,69.50
2017-08-03T17:43:01.868Z,69.60
2017-08-03T17:45:29.497Z,69.60
2017-08-03T17:47:57.080Z,68.40
2017-08-03T17:50:24.662Z,70.40
2017-08-03T17:52:53.061Z,69.80
2017-08-03T17:55:20.692Z,69.70
2017-08-03T17:57:48.272Z,69.60
2017-08-03T18:00:15.836Z,69.50
2017-08-03T18:02:43.408Z,68.90
2017-08-03T18:05:11.713Z,70.20
2017-08-03T18:07:39.284Z,69.20
2017-08-03T18:10:06.864Z,69.10
2017-08-03T18:12:35.269Z,71.60
2017-08-03T18:15:02.856Z,70.70
2017-08-03T18:17:30.470Z,71.50
2017-08-03T18:19:58.100Z,72.10
2017-08-03T18:22:26.182Z,73.20
2017-08-03T18:24:53.822Z,73.50
2017-08-03T18:27:21.420Z,73.40
2017-08-03T18:29:49.845Z,73.80
2017-08-03T18:32:17.453Z,73.30
2017-08-03T18:34:45.120Z,74.30
2017-08-03T18:37:14.240Z,75.80
2017-08-03T18:39:41.974Z,75.10
2017-08-03T18:42:09.672Z,75.60
2017-08-03T18:44:38.081Z,75.70
2017-08-03T18:47:05.681Z,75.60
2017-08-03T18:49:34.079Z,75.40
2017-08-03T18:52:01.716Z,75.50
2017-08-03T18:54:29.368Z,75.60
2017-08-03T18:56:56.945Z,76.20
2017-08-03T18:59:24.991Z,77.40
2017-08-03T19:01:52.569Z,77.70
2017-08-03T19:04:20.190Z,77.80
2017-08-03T19:06:48.260Z,77.90
2017-08-03T19:09:15.827Z,78.20
2017-08-03T19:11:44.206Z,78.50
2017-08-03T19:14:11.802Z,78.50
2017-08-03T19:16:39.362Z,79.00
2017-08-03T19:19:07.011Z,79.60
2017-08-03T19:21:34.635Z,80.30
2017-08-03T19:24:02.277Z,80.00
2017-08-03T19:26:29.825Z,80.10
2017-08-03T19:28:57.391Z,80.10
2017-08-03T19:31:25.788Z,80.10
2017-08-03T19:33:54.123Z,79.70
2017-08-03T19:36:21.699Z,79.60
2017-08-03T19:38:50.011Z,80.10
2017-08-03T19:41:17.585Z,80.10
2017-08-03T19:43:45.195Z,80.50
2017-08-03T19:46:12.783Z,80.10
2017-08-03T19:48:40.389Z,79.90
2017-08-03T19:51:07.963Z,80.40
2017-08-03T19:53:35.554Z,80.30
2017-08-03T19:56:03.133Z,80.40
2017-08-03T19:58:30.679Z,80.10
2017-08-03T20:00:58.313Z,80.10
2017-08-03T20:03:26.027Z,79.80
2017-08-03T20:05:59.785Z,79.90
2017-08-03T20:08:37.787Z,79.30
2017-08-03T20:13:58.587Z,78.90
2017-08-03T20:16:27.697Z,79.40
2017-08-03T20:18:57.754Z,79.70
2017-08-03T20:21:27.791Z,79.60
2017-08-03T20:23:56.352Z,79.00
2017-08-03T20:26:33.552Z,79.00
2017-08-03T20:29:07.263Z,79.10
2017-08-03T20:31:36.051Z,79.00
2017-08-03T20:34:07.955Z,78.80
2017-08-03T20:36:38.684Z,78.80
2017-08-03T20:39:09.854Z,78.70
2017-08-03T20:41:39.667Z,78.40
2017-08-03T20:44:10.933Z,78.20
2017-08-03T20:46:39.760Z,77.70
2017-08-03T20:49:10.089Z,77.10
2017-08-03T20:51:42.444Z,77.60
2017-08-03T20:54:11.430Z,76.90
2017-08-03T20:56:39.952Z,75.50
2017-08-03T20:59:07.955Z,75.40
2017-08-03T21:01:35.647Z,75.30
2017-08-03T21:04:03.255Z,76.00
2017-08-03T21:06:30.970Z,74.70
2017-08-03T21:08:59.404Z,76.70
2017-08-03T21:11:27.233Z,75.80
2017-08-03T21:13:54.916Z,76.60
2017-08-03T21:16:22.612Z,77.60
2017-08-03T21:18:50.290Z,77.90
2017-08-03T21:21:18.295Z,78.10
2017-08-03T21:23:49.284Z,76.90
2017-08-03T21:26:17.020Z,76.60
2017-08-03T21:31:23.424Z,75.50
2017-08-03T21:33:51.327Z,75.40
2017-08-03T21:36:19.103Z,75.60
2017-08-03T21:38:50.657Z,76.10
2017-08-03T21:41:19.368Z,77.00
2017-08-03T21:43:47.959Z,76.90
2017-08-03T21:49:09.555Z,76.60
2017-08-03T21:54:17.808Z,75.70
2017-08-03T21:56:45.592Z,75.70
2017-08-03T21:59:13.522Z,76.60
2017-08-03T22:01:45.530Z,76.40
2017-08-03T22:04:15.324Z,76.20
2017-08-03T22:06:43.097Z,75.60
2017-08-03T22:09:10.757Z,76.10
2017-08-03T22:11:38.378Z,76.10
2017-08-03T22:14:05.927Z,76.60
2017-08-03T22:16:33.463Z,76.70
2017-08-03T22:19:01.047Z,76.10
2017-08-03T22:21:28.616Z,76.70
2017-08-03T22:23:56.204Z,77.10
2017-08-03T22:26:23.783Z,77.70
2017-08-03T22:28:51.380Z,78.10
2017-08-03T22:31:18.961Z,77.80
2017-08-03T22:33:46.562Z,77.20
2017-08-03T22:36:14.137Z,76.90
2017-08-03T22:38:41.781Z,76.90
2017-08-03T22:41:09.331Z,76.90
2017-08-03T22:43:36.937Z,76.80
2017-08-03T22:46:04.480Z,77.10
2017-08-03T22:48:32.064Z,77.50
2017-08-03T22:51:00.096Z,77.90
2017-08-03T22:53:27.684Z,77.70
2017-08-03T22:55:55.239Z,77.00
2017-08-03T22:58:22.824Z,76.30
2017-08-03T23:00:50.363Z,76.90
2017-08-03T23:03:17.930Z,77.40
2017-08-03T23:05:45.475Z,77.00
2017-08-03T23:08:13.083Z,76.40
2017-08-03T23:10:40.623Z,76.90
2017-08-03T23:13:08.218Z,77.10
2017-08-03T23:15:35.760Z,78.00
2017-08-03T23:18:03.344Z,77.70
2017-08-03T23:20:31.306Z,77.30
2017-08-03T23:22:58.908Z,77.70
2017-08-03T23:25:26.661Z,77.30
2017-08-03T23:27:54.307Z,77.00
2017-08-03T23:30:21.867Z,76.50
2017-08-03T23:32:49.447Z,76.50
2017-08-03T23:35:16.984Z,77.70
2017-08-03T23:37:44.555Z,78.00
2017-08-03T23:40:12.116Z,78.20
2017-08-03T23:42:39.711Z,78.20
2017-08-03T23:45:07.282Z,78.40
2017-08-03T23:47:34.897Z,78.10
2017-08-03T23:50:02.470Z,78.10
2017-08-03T23:52:30.647Z,77.90
2017-08-03T23:54:58.225Z,77.20
2017-08-03T23:57:25.857Z,77.30
2017-08-03T23:59:53.440Z,76.40
